createdAt,value
2024-05-09T00:01:30.306Z,54.75
2024-05-09T00:06:33.173Z,54.83
2024-05-09T00:11:36.296Z,55.48
2024-05-09T00:16:39.892Z,55.07
2024-05-09T00:21:45.837Z,55.57
2024-05-09T00:26:48.736Z,56.13
2024-05-09T00:31:51.983Z,56.17
2024-05-09T00:36:55.038Z,56.13
2024-05-09T00:42:00.216Z,55.58
2024-05-09T00:47:03.976Z,55.10
2024-05-09T00:52:07.643Z,56.18
2024-05-09T00:57:10.675Z,56.78
2024-05-09T01:02:16.250Z,56.80
2024-05-09T01:07:19.123Z,57.03
2024-05-09T01:12:22.070Z,57.25
2024-05-09T01:17:25.752Z,56.85
2024-05-09T01:22:30.635Z,56.97
2024-05-09T01:27:33.476Z,57.36
2024-05-09T01:32:36.430Z,57.47
2024-05-09T01:37:40.300Z,56.98
2024-05-09T01:42:42.967Z,57.07
2024-05-09T01:47:46.038Z,57.13
2024-05-09T01:52:49.155Z,57.08
2024-05-09T01:57:52.060Z,57.06
2024-05-09T02:02:55.022Z,56.83
2024-05-09T02:07:58.154Z,57.09
2024-05-09T02:13:01.253Z,57.14
2024-05-09T02:18:05.078Z,57.38
2024-05-09T02:23:09.568Z,57.35
2024-05-09T02:28:12.706Z,57.24
2024-05-09T02:33:16.083Z,57.19
2024-05-09T02:38:19.137Z,57.50
2024-05-09T02:43:22.402Z,57.69
2024-05-09T02:48:25.387Z,58.48
2024-05-09T02:53:28.420Z,58.57
2024-05-09T02:58:31.377Z,59.07
2024-05-09T03:03:34.479Z,59.51
2024-05-09T03:08:37.659Z,59.75
2024-05-09T03:13:41.754Z,59.88
2024-05-09T03:18:45.418Z,59.83
2024-05-09T03:23:48.314Z,59.96
2024-05-09T03:28:51.196Z,59.43
2024-05-09T03:33:54.177Z,59.47
2024-05-09T03:38:57.124Z,59.18
2024-05-09T03:44:00.169Z,58.92
2024-05-09T03:49:03.348Z,58.63
2024-05-09T03:54:06.583Z,58.84
2024-05-09T03:59:09.431Z,58.68
2024-05-09T04:04:12.445Z,58.55
2024-05-09T04:09:15.371Z,58.53
2024-05-09T04:14:18.222Z,58.27
2024-05-09T04:19:21.283Z,58.04
2024-05-09T04:24:24.445Z,57.92
2024-05-09T04:29:27.441Z,58.19
2024-05-09T04:34:30.561Z,57.79
2024-05-09T04:39:33.496Z,58.26
2024-05-09T04:44:36.376Z,57.66
2024-05-09T04:49:43.189Z,53.71
2024-05-09T04:54:46.385Z,46.71
2024-05-09T04:59:49.655Z,41.16
2024-05-09T05:04:53.791Z,36.26
2024-05-09T05:09:56.797Z,33.40
2024-05-09T05:14:59.648Z,31.98
2024-05-09T05:20:03.006Z,33.13
2024-05-09T05:25:07.386Z,35.27
2024-05-09T05:30:17.553Z,35.11
2024-05-09T05:35:24.371Z,37.03
2024-05-09T05:40:33.504Z,37.71
2024-05-09T05:45:39.952Z,39.00
2024-05-09T05:50:43.899Z,40.18
2024-05-09T05:55:46.954Z,41.24
2024-05-09T06:00:53.019Z,42.43
2024-05-09T06:05:56.517Z,41.16
2024-05-09T06:10:59.746Z,41.60
2024-05-09T06:16:05.033Z,41.18
2024-05-09T06:21:08.134Z,42.17
2024-05-09T06:26:11.288Z,42.12
2024-05-09T06:31:14.463Z,41.40
2024-05-09T06:36:17.562Z,42.66
2024-05-09T06:41:20.644Z,42.62
2024-05-09T06:46:23.792Z,43.34
2024-05-09T06:51:27.084Z,42.94
2024-05-09T06:56:30.018Z,44.30
2024-05-09T07:01:33.221Z,44.63
2024-05-09T07:06:36.201Z,44.97
2024-05-09T07:11:39.488Z,45.28
2024-05-09T07:16:42.655Z,44.89
2024-05-09T07:21:45.619Z,44.80
2024-05-09T07:26:48.633Z,45.86
2024-05-09T07:31:51.778Z,45.92
2024-05-09T07:36:54.838Z,45.49
2024-05-09T07:41:57.765Z,45.42
2024-05-09T07:57:13.000Z,45.68
2024-05-09T08:02:16.203Z,45.13
2024-05-09T08:07:20.186Z,44.82
2024-05-09T08:12:23.343Z,44.32
2024-05-09T08:17:26.327Z,44.32
2024-05-09T08:22:32.624Z,43.92
2024-05-09T08:27:37.013Z,43.57
2024-05-09T08:32:40.771Z,43.16
2024-05-09T08:37:43.959Z,41.47
2024-05-09T08:42:52.435Z,41.32
2024-05-09T08:47:59.706Z,42.25
2024-05-09T08:53:02.846Z,41.91
2024-05-09T08:58:07.556Z,41.64
2024-05-09T09:03:17.728Z,41.85
2024-05-09T09:08:22.495Z,41.79
2024-05-09T09:13:26.672Z,41.78
2024-05-09T09:18:33.216Z,41.71
2024-05-09T09:23:36.523Z,41.54
2024-05-09T09:28:40.868Z,40.59
2024-05-09T09:33:44.358Z,41.09
2024-05-09T09:38:48.501Z,41.04
2024-05-09T09:43:53.497Z,40.58
2024-05-09T09:48:57.225Z,41.17
2024-05-09T09:54:03.585Z,40.17
2024-05-09T09:59:08.725Z,39.87
2024-05-09T10:04:19.141Z,39.33
2024-05-09T10:09:23.328Z,38.14
2024-05-09T10:14:26.963Z,39.77
2024-05-09T10:19:30.010Z,39.74
2024-05-09T10:24:50.436Z,38.58
2024-05-09T10:30:02.822Z,37.56
2024-05-09T10:35:15.070Z,37.88
2024-05-09T10:40:26.548Z,39.25
2024-05-09T10:45:35.925Z,38.66
2024-05-09T10:50:43.724Z,38.91
2024-05-09T10:56:00.143Z,38.49
2024-05-09T11:01:06.772Z,38.55
2024-05-09T11:06:11.602Z,37.94
2024-05-09T11:11:15.755Z,37.02
2024-05-09T11:16:21.251Z,35.84
2024-05-09T11:21:25.128Z,36.01
2024-05-09T11:26:29.618Z,36.66
2024-05-09T11:31:33.122Z,37.54
2024-05-09T11:36:36.332Z,37.82
2024-05-09T11:41:39.530Z,37.81
2024-05-09T11:46:43.576Z,36.80
2024-05-09T11:51:46.436Z,37.26
2024-05-09T11:56:51.666Z,36.69
2024-05-09T12:01:54.936Z,36.64
2024-05-09T12:06:58.033Z,36.14
2024-05-09T12:12:01.223Z,36.85
2024-05-09T12:17:05.768Z,36.93
2024-05-09T12:22:08.914Z,36.66
2024-05-09T12:27:12.123Z,35.83
2024-05-09T12:32:15.124Z,35.75
2024-05-09T12:37:19.223Z,36.30
2024-05-09T12:42:27.089Z,36.53
2024-05-09T12:47:31.657Z,35.62
2024-05-09T12:52:34.575Z,33.30
2024-05-09T12:57:37.618Z,34.06
2024-05-09T13:02:43.122Z,35.12
2024-05-09T13:07:47.069Z,35.42
2024-05-09T13:12:50.148Z,33.70
2024-05-09T13:17:53.526Z,34.05
2024-05-09T13:22:56.588Z,34.50
2024-05-09T13:27:59.748Z,34.57
2024-05-09T13:33:02.830Z,33.28
2024-05-09T13:38:06.027Z,34.61
2024-05-09T13:43:09.344Z,34.10
2024-05-09T13:48:12.890Z,33.84
2024-05-09T13:53:16.174Z,34.60
2024-05-09T13:58:19.375Z,35.13
2024-05-09T14:03:22.658Z,34.20
2024-05-09T14:08:26.118Z,34.17
2024-05-09T14:13:29.106Z,33.47
2024-05-09T14:18:32.516Z,32.91
2024-05-09T14:23:35.705Z,33.79
2024-05-09T14:28:38.712Z,33.72
2024-05-09T14:33:41.919Z,33.48
2024-05-09T14:38:44.820Z,32.35
2024-05-09T14:43:47.621Z,32.12
2024-05-09T14:48:51.669Z,31.96
2024-05-09T14:53:54.752Z,33.06
2024-05-09T14:58:58.071Z,32.88
2024-05-09T15:04:02.548Z,32.98
2024-05-09T15:09:07.668Z,32.87
2024-05-09T15:14:10.690Z,32.89
2024-05-09T15:19:13.805Z,32.17
2024-05-09T15:24:16.977Z,32.68
2024-05-09T15:29:19.977Z,32.55
2024-05-09T15:34:23.002Z,32.20
2024-05-09T15:39:28.366Z,31.58
2024-05-09T15:44:31.448Z,32.51
2024-05-09T15:49:34.761Z,32.92
2024-05-09T15:54:37.981Z,33.05
2024-05-09T15:59:41.084Z,32.01
2024-05-09T16:04:44.098Z,32.33
2024-05-09T16:09:47.538Z,33.27
2024-05-09T16:14:51.370Z,33.71
2024-05-09T16:19:55.583Z,33.79
2024-05-09T16:24:58.683Z,34.37
2024-05-09T16:30:05.450Z,34.39
2024-05-09T16:35:10.596Z,34.31
2024-05-09T16:40:22.066Z,34.09
2024-05-09T16:45:33.578Z,34.59
2024-05-09T16:50:37.503Z,34.47
2024-05-09T16:55:40.741Z,35.05
2024-05-09T17:00:44.523Z,35.18
2024-05-09T17:05:50.754Z,35.05
2024-05-09T17:10:54.181Z,35.32
2024-05-09T17:15:57.522Z,35.41
2024-05-09T17:21:00.375Z,35.89
2024-05-09T17:26:03.703Z,36.42
2024-05-09T17:31:07.435Z,36.99
2024-05-09T17:36:10.607Z,36.99
2024-05-09T17:41:13.640Z,38.01
2024-05-09T17:46:17.065Z,38.64
2024-05-09T17:51:20.239Z,38.49
2024-05-09T17:56:23.646Z,38.12
2024-05-09T18:01:26.513Z,39.00
2024-05-09T18:06:29.786Z,39.47
2024-05-09T18:11:32.882Z,39.51
2024-05-09T18:16:36.135Z,39.65
2024-05-09T18:21:39.382Z,40.75
2024-05-09T18:26:42.492Z,41.26
2024-05-09T18:31:45.504Z,42.17
2024-05-09T18:36:48.749Z,43.03
2024-05-09T18:41:51.601Z,44.49
2024-05-09T18:46:55.144Z,44.49
2024-05-09T18:51:58.298Z,45.40
2024-05-09T18:57:01.333Z,45.63
2024-05-09T19:02:04.902Z,46.55
2024-05-09T19:07:08.741Z,46.61
2024-05-09T19:12:11.912Z,46.62
2024-05-09T19:17:15.276Z,46.78
2024-05-09T19:22:18.403Z,48.29
2024-05-09T19:27:24.410Z,48.31
2024-05-09T19:32:27.440Z,48.36
2024-05-09T19:37:31.822Z,48.77
2024-05-09T19:42:34.829Z,48.89
2024-05-09T19:47:38.048Z,50.88
2024-05-09T19:52:42.394Z,51.24
2024-05-09T19:57:45.425Z,51.27
2024-05-09T20:02:48.692Z,52.05
2024-05-09T20:07:51.887Z,52.45
2024-05-09T20:12:54.925Z,52.83
2024-05-09T20:17:58.381Z,53.30
2024-05-09T20:23:04.799Z,53.89
2024-05-09T20:28:08.163Z,54.86
2024-05-09T20:33:12.633Z,54.31
2024-05-09T20:38:15.848Z,54.52
2024-05-09T20:43:19.060Z,55.55
2024-05-09T20:48:22.330Z,55.39
2024-05-09T20:53:25.480Z,55.70
2024-05-09T20:58:29.231Z,56.08
2024-05-09T21:03:32.755Z,56.57
2024-05-09T21:08:36.352Z,56.61
2024-05-09T21:13:39.333Z,57.03
2024-05-09T21:18:42.397Z,57.58
2024-05-09T21:23:45.784Z,57.65
2024-05-09T21:28:48.852Z,57.58
2024-05-09T21:33:52.069Z,57.76
2024-05-09T21:38:55.266Z,57.29
2024-05-09T21:43:58.271Z,57.14
2024-05-09T21:49:01.223Z,57.03
2024-05-09T21:54:04.299Z,57.01
2024-05-09T21:59:07.300Z,57.31
2024-05-09T22:04:11.110Z,57.47
2024-05-09T22:09:14.416Z,57.25
2024-05-09T22:14:17.428Z,57.23
2024-05-09T22:19:21.642Z,57.85
2024-05-09T22:24:25.084Z,57.76
2024-05-09T22:35:30.844Z,58.12
2024-05-09T22:40:44.791Z,58.51
2024-05-09T22:45:52.683Z,58.42
2024-05-09T22:50:56.077Z,58.67
2024-05-09T22:55:59.242Z,58.68
2024-05-09T23:01:02.647Z,59.00
2024-05-09T23:06:06.827Z,58.93
2024-05-09T23:11:10.160Z,58.85
2024-05-09T23:16:13.909Z,59.32
2024-05-09T23:21:17.007Z,59.29
2024-05-09T23:26:20.189Z,59.37
2024-05-09T23:31:23.572Z,59.65
2024-05-09T23:36:30.483Z,59.62
2024-05-09T23:41:33.712Z,59.46
2024-05-09T23:46:37.000Z,59.49
2024-05-09T23:51:40.576Z,59.65
2024-05-09T23:56:43.991Z,59.88
